Time;durP1;ratioP1;P1;durP2;ratioP2;P2;SDS_P1;SDS_P2;PMS_P1;PMS_P2;Temp;Humidity;BMP_temperature;BMP_pressure;BME280_temperature;BME280_humidity;BME280_pressure;Samples;Min_cycle;Max_cycle;Signal;HPM_P1;HPM_P2
2022/05/27 00:00:52;;;;;;;;;;;;;;;20.29;60.30;100139.25;4501805;31;20000;-86
2022/05/27 00:03:17;;;;;;;;;;;;;;;20.24;60.30;100136.91;4487297;31;20435;-86
2022/05/27 00:05:43;;;;;;;;;;;;;;;20.10;60.30;100131.66;4502102;31;19994;-86
2022/05/27 00:08:08;;;;;;;;;;;;;;;20.08;60.30;100129.13;4487660;31;20284;-85
2022/05/27 00:10:34;;;;;;;;;;;;;;;20.15;60.30;100125.16;4502062;31;19990;-85
2022/05/27 00:12:59;;;;;;;;;;;;;;;20.20;60.29;100125.69;4487382;31;20426;-86
2022/05/27 00:15:24;;;;;;;;;;;;;;;20.28;60.30;100119.06;4501741;31;20013;-86
2022/05/27 00:17:49;;;;;;;;;;;;;;;20.34;60.30;100116.84;4473653;31;20267;-86
2022/05/27 00:20:15;;;;;;;;;;;;;;;20.45;60.31;100110.88;4501430;31;20007;-86
2022/05/27 00:22:40;;;;;;;;;;;;;;;20.62;60.33;100107.12;4501424;31;19972;-85
2022/05/27 00:25:06;;;;;;;;;;;;;;;20.69;60.32;100097.81;4486831;31;19991;-85
2022/05/27 00:27:31;;;;;;;;;;;;;;;20.69;60.32;100093.34;4487467;31;19960;-86
2022/05/27 00:29:56;;;;;;;;;;;;;;;20.75;60.33;100097.38;4501449;31;20018;-86
2022/05/27 00:32:21;;;;;;;;;;;;;;;20.62;60.33;100097.38;4500794;31;20772;-86
2022/05/27 00:34:47;;;;;;;;;;;;;;;20.60;60.31;100094.00;4486938;31;19972;-86
2022/05/27 00:37:12;;;;;;;;;;;;;;;20.50;60.31;100093.75;4487085;31;19972;-85
2022/05/27 00:39:38;;;;;;;;;;;;;;;20.55;60.32;100093.44;4486799;31;20390;-85
2022/05/27 00:42:03;;;;;;;;;;;;;;;20.61;60.32;100095.69;4487235;31;20579;-86
2022/05/27 00:44:28;;;;;;;;;;;;;;;20.49;60.31;100097.34;4486881;31;20222;-85
2022/05/27 00:46:53;;;;;;;;;;;;;;;20.30;60.30;100094.19;4486425;31;19984;-86
2022/05/27 00:49:23;;;;;;;;;;;;;;;20.30;60.30;100094.19;4473833;31;20019;-86
2022/05/27 00:51:49;;;;;;;;;;;;;;;20.35;60.31;100088.63;4486696;31;20043;-86
2022/05/27 00:54:16;;;;;;;;;;;;;;;20.30;60.30;100098.66;4483312;32;19991;-85
2022/05/27 00:56:42;;;;;;;;;;;;;;;20.34;60.30;100103.62;4485791;32;20020;-86
2022/05/27 00:59:08;;;;;;;;;;;;;;;20.31;60.30;100100.34;4486328;31;19992;-86
2022/05/27 01:01:34;;;;;;;;;;;;;;;20.44;60.31;100086.25;4484513;32;20285;-86
2022/05/27 01:03:59;;;;;;;;;;;;;;;20.36;60.30;100099.09;4485445;32;20028;-86
2022/05/27 01:06:25;;;;;;;;;;;;;;;20.22;60.29;100097.38;4484534;32;20305;-86
2022/05/27 01:08:50;;;;;;;;;;;;;;;20.39;60.31;100090.97;4484437;32;19976;-86
2022/05/27 01:11:21;;;;;;;;;;;;;;;20.33;60.30;100101.06;4484306;32;20321;-86
2022/05/27 01:13:50;;;;;;;;;;;;;;;20.26;60.30;100100.66;4485576;32;19999;-86
2022/05/27 01:16:34;;;;;;;;;;;;;;;20.09;60.29;100100.91;4484441;32;20396;-85
2022/05/27 01:22:01;;;;;;;;;;;;;;;20.05;60.29;100092.34;4485783;32;20878;-86
2022/05/27 01:24:29;;;;;;;;;;;;;;;20.02;60.29;100091.69;4485615;32;20341;-85
2022/05/27 01:27:03;;;;;;;;;;;;;;;20.16;60.30;100095.13;4485616;32;20323;-86
2022/05/27 01:29:47;;;;;;;;;;;;;;;20.02;60.29;100092.53;4485703;32;19977;-86
2022/05/27 01:32:20;;;;;;;;;;;;;;;20.04;60.29;100088.00;4485851;31;20039;-86
2022/05/27 01:34:48;;;;;;;;;;;;;;;20.00;60.28;100098.88;4484550;32;19968;-85
2022/05/27 01:37:17;;;;;;;;;;;;;;;20.02;60.29;100089.91;4484239;32;19981;-86
2022/05/27 01:39:43;;;;;;;;;;;;;;;19.97;60.28;100086.72;4484107;32;19987;-86
2022/05/27 01:42:17;;;;;;;;;;;;;;;19.91;60.28;100084.47;4485553;32;20046;-86
2022/05/27 01:45:01;;;;;;;;;;;;;;;20.06;60.28;100082.62;4484034;32;19991;-86
2022/05/27 01:47:38;;;;;;;;;;;;;;;19.95;60.28;100085.97;4485453;32;20019;-86
2022/05/27 01:50:05;;;;;;;;;;;;;;;20.05;60.29;100073.00;4485574;32;20014;-85
2022/05/27 01:52:33;;;;;;;;;;;;;;;20.01;60.29;100079.44;4484231;32;20018;-86
2022/05/27 01:55:00;;;;;;;;;;;;;;;19.93;60.28;100078.16;4484322;32;20040;-86
2022/05/27 01:57:27;;;;;;;;;;;;;;;19.92;60.28;100084.37;4484519;32;19991;-86
2022/05/27 02:00:11;;;;;;;;;;;;;;;20.07;60.28;100082.50;4471375;32;19980;-86
2022/05/27 02:02:50;;;;;;;;;;;;;;;20.05;60.29;100079.12;4484239;32;19992;-86
2022/05/27 02:05:17;;;;;;;;;;;;;;;20.21;60.29;100085.09;4482923;32;20718;-86
2022/05/27 02:07:53;;;;;;;;;;;;;;;20.02;60.28;100078.47;4470791;32;19964;-86
2022/05/27 02:10:25;;;;;;;;;;;;;;;20.06;60.29;100078.19;4483867;32;20079;-86
2022/05/27 02:12:52;;;;;;;;;;;;;;;19.96;60.28;100069.16;4485202;32;20056;-86
2022/05/27 02:15:18;;;;;;;;;;;;;;;20.03;60.29;100078.38;4470577;32;20028;-86
2022/05/27 02:17:50;;;;;;;;;;;;;;;19.99;60.28;100074.25;4483780;32;19980;-86
2022/05/27 02:20:36;;;;;;;;;;;;;;;19.85;60.28;100075.13;4484296;32;20003;-86
2022/05/27 02:23:03;;;;;;;;;;;;;;;19.76;60.27;100074.91;4485330;32;19992;-86
2022/05/27 02:25:38;;;;;;;;;;;;;;;19.93;60.28;100077.31;4483906;32;20000;-86
2022/05/27 02:28:05;;;;;;;;;;;;;;;19.87;60.28;100078.56;4483919;32;20608;-86
2022/05/27 02:30:30;;;;;;;;;;;;;;;19.84;60.27;100081.37;4485020;31;19988;-86
2022/05/27 02:35:41;;;;;;;;;;;;;;;19.72;60.27;100079.53;4482585;31;19982;-86
2022/05/27 02:38:07;;;;;;;;;;;;;;;19.65;60.26;100080.87;4476543;32;19976;-86
2022/05/27 02:40:33;;;;;;;;;;;;;;;19.71;60.27;100075.22;4483820;32;19991;-86
2022/05/27 02:43:08;;;;;;;;;;;;;;;19.42;60.25;100076.19;4470328;32;20016;-86
2022/05/27 02:45:46;;;;;;;;;;;;;;;19.54;60.26;100078.91;4457050;32;20282;-86
2022/05/27 02:48:20;;;;;;;;;;;;;;;19.51;60.26;100078.25;4484447;32;19995;-86
2022/05/27 02:50:52;;;;;;;;;;;;;;;19.31;60.25;100075.06;4469973;32;20000;-86
2022/05/27 02:53:35;;;;;;;;;;;;;;;19.29;60.24;100078.75;4470045;32;20029;-86
2022/05/27 02:56:09;;;;;;;;;;;;;;;19.34;60.25;100076.66;4484288;32;19981;-86
2022/05/27 02:58:34;;;;;;;;;;;;;;;19.18;60.24;100073.31;4470095;32;20253;-86
2022/05/27 03:01:00;;;;;;;;;;;;;;;19.22;60.25;100078.28;4469891;32;20020;-86
2022/05/27 03:03:25;;;;;;;;;;;;;;;19.05;60.23;100088.19;4484361;32;20223;-85
2022/05/27 03:06:09;;;;;;;;;;;;;;;19.07;60.24;100081.88;4469788;32;19987;-86
2022/05/27 03:08:45;;;;;;;;;;;;;;;18.97;60.22;100086.88;4484198;32;20024;-86
2022/05/27 03:11:18;;;;;;;;;;;;;;;18.99;60.22;100089.41;4469804;32;19992;-86
2022/05/27 03:13:44;;;;;;;;;;;;;;;19.08;60.24;100090.63;4469625;32;20006;-86
2022/05/27 03:16:16;;;;;;;;;;;;;;;18.81;60.22;100093.16;4485381;32;20402;-86
2022/05/27 03:18:41;;;;;;;;;;;;;;;18.73;60.22;100100.69;4471852;32;19973;-86
2022/05/27 03:21:10;;;;;;;;;;;;;;;18.62;60.21;100101.28;4471572;32;20022;-86
2022/05/27 03:23:38;;;;;;;;;;;;;;;18.70;60.22;100101.75;4472091;32;20053;-86
2022/05/27 03:26:18;;;;;;;;;;;;;;;18.96;60.23;100105.44;4486301;32;20062;-85
2022/05/27 03:28:50;;;;;;;;;;;;;;;18.92;60.22;100103.91;4471888;32;20032;-87
2022/05/27 03:31:17;;;;;;;;;;;;;;;18.91;60.22;100097.78;4486424;32;20341;-86
2022/05/27 03:33:52;;;;;;;;;;;;;;;18.98;60.22;100093.00;4473183;32;19992;-86
2022/05/27 03:36:20;;;;;;;;;;;;;;;18.83;60.22;100105.31;4471927;32;19977;-86
2022/05/27 03:38:51;;;;;;;;;;;;;;;18.93;60.23;100095.94;4471726;32;19968;-86
2022/05/27 03:41:18;;;;;;;;;;;;;;;19.05;60.23;100088.19;4471881;32;20107;-86
2022/05/27 03:43:43;;;;;;;;;;;;;;;19.04;60.23;100092.63;4472194;32;20043;-86
2022/05/27 03:46:08;;;;;;;;;;;;;;;19.17;60.24;100098.84;4459488;32;19999;-86
2022/05/27 03:48:34;;;;;;;;;;;;;;;19.15;60.23;100090.16;4487429;32;20322;-85
2022/05/27 03:51:01;;;;;;;;;;;;;;;19.36;60.24;100092.41;4477468;32;20000;-86
2022/05/27 03:54:03;;;;;;;;;;;;;;;19.34;60.25;100095.13;4472355;32;19980;-86
2022/05/27 03:56:11;;;;;;;;;;;;;;;19.19;60.24;100098.75;4486002;32;19995;-85
2022/05/27 03:58:36;;;;;;;;;;;;;;;19.36;60.25;100102.97;4471751;32;19968;-86
2022/05/27 04:01:01;;;;;;;;;;;;;;;19.40;60.25;100088.63;4485761;31;20037;-86
2022/05/27 04:03:27;;;;;;;;;;;;;;;19.25;60.24;100093.94;4484667;32;20277;-85
2022/05/27 04:05:52;;;;;;;;;;;;;;;19.12;60.23;100105.31;4484524;32;20009;-86
2022/05/27 04:08:17;;;;;;;;;;;;;;;19.26;60.24;100092.97;4484335;32;20341;-85
2022/05/27 04:10:42;;;;;;;;;;;;;;;19.26;60.24;100097.41;4484247;32;20571;-86
2022/05/27 04:13:08;;;;;;;;;;;;;;;19.39;60.25;100097.47;4484416;32;20069;-85
2022/05/27 04:15:34;;;;;;;;;;;;;;;19.45;60.25;100092.69;4483826;32;24478;-86
2022/05/27 04:17:59;;;;;;;;;;;;;;;19.59;60.26;100091.81;4484427;32;20428;-85
2022/05/27 04:20:24;;;;;;;;;;;;;;;19.76;60.26;100093.41;4484326;32;19981;-86
2022/05/27 04:22:54;;;;;;;;;;;;;;;19.88;60.27;100092.63;4485656;32;20318;-86
2022/05/27 04:25:19;;;;;;;;;;;;;;;20.00;60.27;100090.94;4485432;31;19994;-86
2022/05/27 04:27:44;;;;;;;;;;;;;;;20.19;60.29;100088.78;4483515;32;20011;-85
2022/05/27 04:30:10;;;;;;;;;;;;;;;20.21;60.28;100089.53;4483984;32;20332;-86
2022/05/27 04:32:35;;;;;;;;;;;;;;;20.22;60.29;100096.53;4485623;32;20027;-85
2022/05/27 04:35:00;;;;;;;;;;;;;;;20.36;60.29;100085.03;4483941;32;19972;-86
2022/05/27 04:37:25;;;;;;;;;;;;;;;20.32;60.30;100096.75;4486306;32;20314;-85
2022/05/27 04:39:51;;;;;;;;;;;;;;;20.33;60.30;100087.87;4486411;32;20062;-84
2022/05/27 04:42:16;;;;;;;;;;;;;;;20.41;60.30;100082.97;4485241;32;19988;-85
2022/05/27 04:44:42;;;;;;;;;;;;;;;20.26;60.29;100095.38;4486677;31;19973;-86
2022/05/27 04:47:11;;;;;;;;;;;;;;;20.36;60.30;100088.53;4486777;32;19992;-86
2022/05/27 04:49:53;;;;;;;;;;;;;;;20.43;60.31;100089.00;4485589;32;20022;-86
2022/05/27 04:52:19;;;;;;;;;;;;;;;20.49;60.31;100078.84;4485067;32;19992;-86
2022/05/27 04:54:44;;;;;;;;;;;;;;;20.57;60.31;100077.47;4484903;32;20016;-86
2022/05/27 04:57:14;;;;;;;;;;;;;;;20.76;60.31;100075.25;4486748;31;19968;-86
2022/05/27 04:59:40;;;;;;;;;;;;;;;20.87;60.33;100080.66;4485489;32;20033;-86
2022/05/27 05:02:05;;;;;;;;;;;;;;;20.92;60.32;100077.69;4485475;32;19996;-86
2022/05/27 05:04:30;;;;;;;;;;;;;;;21.07;60.34;100087.22;4486426;31;20020;-86
2022/05/27 05:06:56;;;;;;;;;;;;;;;21.22;60.34;100079.97;4486605;32;19969;-88
2022/05/27 05:09:21;;;;;;;;;;;;;;;21.39;60.36;100085.81;4486062;32;19985;-86
2022/05/27 05:11:46;;;;;;;;;;;;;;;21.36;60.35;100087.84;4486529;32;20549;-86
2022/05/27 05:14:12;;;;;;;;;;;;;;;21.38;60.35;100078.81;4485034;32;20045;-84
2022/05/27 05:16:37;;;;;;;;;;;;;;;21.40;60.35;100074.25;4486293;32;19980;-85
2022/05/27 05:19:02;;;;;;;;;;;;;;;21.54;60.35;100073.28;4486629;32;20011;-84
2022/05/27 05:21:27;;;;;;;;;;;;;;;21.74;60.37;100077.94;4486349;32;19985;-85
2022/05/27 05:23:54;;;;;;;;;;;;;;;21.74;60.37;100069.16;4484803;32;20352;-84
2022/05/27 05:26:19;;;;;;;;;;;;;;;21.97;60.38;100080.72;4486478;32;20314;-85
2022/05/27 05:28:44;;;;;;;;;;;;;;;22.18;60.38;100075.66;4486454;32;19982;-85
2022/05/27 05:31:13;;;;;;;;;;;;;;;22.21;60.39;100080.72;4486267;32;19976;-84
2022/05/27 05:33:38;;;;;;;;;;;;;;;22.24;60.39;100076.06;4484985;32;20029;-85
2022/05/27 05:36:04;;;;;;;;;;;;;;;22.53;60.41;100076.50;4486209;32;19980;-85
2022/05/27 05:38:29;;;;;;;;;;;;;;;22.37;60.40;100074.16;4484299;32;20035;-85
2022/05/27 05:40:54;;;;;;;;;;;;;;;22.57;60.41;100079.78;4486634;32;20107;-85
2022/05/27 05:43:20;;;;;;;;;;;;;;;22.46;60.41;100079.72;4486071;32;19987;-85
2022/05/27 05:45:45;;;;;;;;;;;;;;;22.57;60.42;100075.31;4484874;32;19984;-85
2022/05/27 05:48:10;;;;;;;;;;;;;;;22.58;60.42;100073.50;4485747;32;19976;-85
2022/05/27 05:50:35;;;;;;;;;;;;;;;22.54;60.41;100075.53;4486354;32;19977;-85
2022/05/27 05:53:01;;;;;;;;;;;;;;;22.53;60.41;100075.66;4486448;31;19976;-85
2022/05/27 05:55:26;;;;;;;;;;;;;;;22.63;60.42;100069.53;4486560;31;19999;-85
2022/05/27 05:57:51;;;;;;;;;;;;;;;22.62;60.41;100067.00;4486530;31;20007;-84
2022/05/27 06:00:21;;;;;;;;;;;;;;;22.60;60.41;100072.41;4471942;32;20016;-85
2022/05/27 06:02:46;;;;;;;;;;;;;;;22.79;60.42;100069.19;4486348;31;19977;-85
2022/05/27 06:05:11;;;;;;;;;;;;;;;22.93;60.43;100071.63;4486301;32;19983;-85
2022/05/27 06:07:37;;;;;;;;;;;;;;;22.94;60.43;100069.81;4485896;32;19991;-86
2022/05/27 06:10:02;;;;;;;;;;;;;;;23.14;60.44;100071.75;4485861;32;20341;-85
2022/05/27 06:12:28;;;;;;;;;;;;;;;23.21;60.45;100066.84;4484879;32;20264;-85
2022/05/27 06:14:53;;;;;;;;;;;;;;;23.44;60.46;100072.97;4471885;32;20004;-86
2022/05/27 06:17:19;;;;;;;;;;;;;;;23.65;60.46;100065.06;4484923;32;19992;-85
2022/05/27 06:19:44;;;;;;;;;;;;;;;23.85;60.48;100061.63;4486161;31;19973;-85
2022/05/27 06:22:09;;;;;;;;;;;;;;;23.95;60.49;100065.25;4484831;32;19972;-85
2022/05/27 06:24:35;;;;;;;;;;;;;;;24.24;60.50;100056.66;4485927;32;20045;-85
2022/05/27 06:27:00;;;;;;;;;;;;;;;24.35;60.50;100062.78;4484770;32;20270;-85
2022/05/27 06:34:53;;;;;;;;;;;;;;;24.46;60.52;100064.53;4485791;32;20003;-85
2022/05/27 06:37:19;;;;;;;;;;;;;;;24.17;60.50;100062.50;4471240;32;20008;-85
2022/05/27 06:39:44;;;;;;;;;;;;;;;24.31;60.50;100066.66;4471515;32;19992;-85
2022/05/27 06:42:10;;;;;;;;;;;;;;;24.27;60.50;100064.37;4471456;32;20234;-85
2022/05/27 06:44:36;;;;;;;;;;;;;;;24.24;60.50;100059.31;4484475;32;19995;-85
2022/05/27 06:47:01;;;;;;;;;;;;;;;24.37;60.51;100062.66;4484351;32;20032;-85
2022/05/27 06:49:26;;;;;;;;;;;;;;;24.40;60.51;100052.62;4484447;32;19980;-85
2022/05/27 06:51:51;;;;;;;;;;;;;;;24.56;60.52;100056.63;4486126;32;19988;-85
2022/05/27 06:54:17;;;;;;;;;;;;;;;24.72;60.53;100049.00;4486311;32;20269;-85
2022/05/27 06:56:43;;;;;;;;;;;;;;;25.20;60.55;100043.09;4487801;31;20013;-85
2022/05/27 06:59:08;;;;;;;;;;;;;;;25.21;60.55;100052.75;4487726;31;20321;-85
2022/05/27 07:01:33;;;;;;;;;;;;;;;25.17;60.56;100046.87;4486349;32;19981;-85
2022/05/27 07:03:59;;;;;;;;;;;;;;;24.97;60.54;100037.91;4486450;32;20437;-85
2022/05/27 07:06:25;;;;;;;;;;;;;;;25.00;60.54;100047.50;4487788;31;19972;-85
2022/05/27 07:08:51;;;;;;;;;;;;;;;24.80;60.53;100050.03;4486448;32;20285;-85
2022/05/27 07:11:16;;;;;;;;;;;;;;;24.85;60.54;100043.47;4486061;32;19973;-85
2022/05/27 07:13:41;;;;;;;;;;;;;;;25.00;60.54;100039.50;4487453;32;20332;-85
2022/05/27 07:16:06;;;;;;;;;;;;;;;25.08;60.55;100043.19;4486385;32;20066;-85
2022/05/27 07:18:32;;;;;;;;;;;;;;;25.15;60.56;100042.66;4486669;32;19989;-86
2022/05/27 07:21:04;;;;;;;;;;;;;;;25.29;60.55;100044.91;4487824;31;20253;-85
2022/05/27 07:23:29;;;;;;;;;;;;;;;25.29;60.57;100040.44;4486629;32;20020;-85
2022/05/27 07:25:54;;;;;;;;;;;;;;;25.40;60.57;100037.69;4487647;31;19976;-85
2022/05/27 07:28:19;;;;;;;;;;;;;;;25.51;60.57;100033.19;4486453;32;20264;-85
2022/05/27 07:30:45;;;;;;;;;;;;;;;25.45;60.56;100029.25;4486551;32;19980;-85
2022/05/27 07:33:10;;;;;;;;;;;;;;;25.34;60.56;100038.22;4474441;32;19972;-85
2022/05/27 07:35:36;;;;;;;;;;;;;;;25.15;60.56;100029.34;4487658;32;19976;-85
2022/05/27 07:38:01;;;;;;;;;;;;;;;25.14;60.56;100025.81;4486430;32;19984;-85
2022/05/27 07:40:26;;;;;;;;;;;;;;;25.04;60.55;100027.59;4487266;32;19987;-85
2022/05/27 07:42:51;;;;;;;;;;;;;;;25.01;60.55;100023.37;4487673;32;19972;-85
2022/05/27 07:45:17;;;;;;;;;;;;;;;25.11;60.55;100025.25;4486045;32;20029;-85
2022/05/27 07:47:42;;;;;;;;;;;;;;;25.41;60.57;100022.53;4486334;32;19976;-85
2022/05/27 07:50:08;;;;;;;;;;;;;;;25.28;60.56;100028.09;4487638;32;20100;-85
2022/05/27 07:52:34;;;;;;;;;;;;;;;24.95;60.54;100023.06;4487694;31;19973;-85
2022/05/27 07:54:59;;;;;;;;;;;;;;;25.07;60.56;100022.84;4487706;31;20033;-85
2022/05/27 07:57:25;;;;;;;;;;;;;;;25.06;60.54;100020.31;4486286;32;20044;-85
2022/05/27 07:59:53;;;;;;;;;;;;;;;24.86;60.54;100007.91;4487460;32;20006;-85
2022/05/27 08:02:18;;;;;;;;;;;;;;;24.91;60.55;100014.50;4486396;32;20044;-85
2022/05/27 08:04:43;;;;;;;;;;;;;;;25.03;60.55;100012.59;4487254;32;20022;-85
2022/05/27 08:07:08;;;;;;;;;;;;;;;25.15;60.56;100005.34;4485841;32;20031;-85
2022/05/27 08:09:33;;;;;;;;;;;;;;;25.29;60.57;100012.94;4486912;32;20012;-87
2022/05/27 08:11:59;;;;;;;;;;;;;;;25.46;60.58;100004.28;4487109;32;19992;-85
2022/05/27 08:14:24;;;;;;;;;;;;;;;25.74;60.59;100002.66;4486818;32;19969;-85
2022/05/27 08:16:50;;;;;;;;;;;;;;;25.82;60.58;100005.50;4486521;32;23159;-85
2022/05/27 08:19:15;;;;;;;;;;;;;;;25.96;60.59;99998.88;4472756;32;20300;-85
2022/05/27 08:21:40;;;;;;;;;;;;;;;25.77;60.59;100002.38;4487113;31;19972;-85
2022/05/27 08:24:08;;;;;;;;;;;;;;;25.70;60.59;99999.44;4487148;32;19969;-85
2022/05/27 08:26:33;;;;;;;;;;;;;;;25.88;60.60;99996.09;4473012;32;19996;-85
2022/05/27 08:28:58;;;;;;;;;;;;;;;25.83;60.59;99996.50;4485592;32;20064;-85
2022/05/27 08:31:23;;;;;;;;;;;;;;;25.95;60.60;99990.03;4472229;32;19972;-85
2022/05/27 08:39:16;;;;;;;;;;;;;;;26.67;60.63;99988.66;4485867;32;20025;-85
2022/05/27 08:41:51;;;;;;;;;;;;;;;26.58;60.63;99984.19;4485750;32;20268;-85
2022/05/27 08:44:20;;;;;;;;;;;;;;;26.49;60.63;99988.56;4485750;32;20033;-85
2022/05/27 08:47:04;;;;;;;;;;;;;;;26.53;60.62;99984.63;4485772;32;20388;-86
2022/05/27 08:49:42;;;;;;;;;;;;;;;26.64;60.64;99974.75;4487242;31;20230;-85
2022/05/27 08:52:12;;;;;;;;;;;;;;;27.15;60.66;99969.75;4485947;32;19981;-85
2022/05/27 08:54:39;;;;;;;;;;;;;;;27.02;60.66;99963.94;4485826;32;20008;-85
2022/05/27 08:59:51;;;;;;;;;;;;;;;26.97;60.65;99958.13;4485880;32;19983;-85
2022/05/27 09:02:35;;;;;;;;;;;;;;;27.26;60.67;99966.03;4486927;32;19984;-84
2022/05/27 09:05:03;;;;;;;;;;;;;;;27.57;60.67;99957.66;4486903;31;19991;-85
2022/05/27 09:07:43;;;;;;;;;;;;;;;27.72;60.69;99951.66;4485537;32;19996;-85
2022/05/27 09:10:20;;;;;;;;;;;;;;;27.89;60.69;99944.56;4485422;32;19976;-84
2022/05/27 09:13:05;;;;;;;;;;;;;;;28.13;60.71;99941.22;4485248;32;20055;-84
2022/05/27 09:15:47;;;;;;;;;;;;;;;27.88;60.69;99942.06;4486774;31;19984;-84
2022/05/27 09:18:18;;;;;;;;;;;;;;;27.68;60.69;99947.59;4486862;31;19980;-83
2022/05/27 09:20:48;;;;;;;;;;;;;;;27.70;60.69;99942.94;4486761;32;20375;-83
2022/05/27 09:23:13;;;;;;;;;;;;;;;28.04;60.70;99931.47;4485584;32;19999;-83
2022/05/27 09:25:48;;;;;;;;;;;;;;;28.07;60.71;99936.50;4486665;32;20035;-82
2022/05/27 09:28:17;;;;;;;;;;;;;;;27.97;60.71;99930.44;4486670;32;20368;-83
2022/05/27 09:30:42;;;;;;;;;;;;;;;27.82;60.70;99925.63;4472122;32;20432;-82
2022/05/27 09:33:09;;;;;;;;;;;;;;;27.60;60.69;99930.59;4471844;32;22952;-83
2022/05/27 09:35:40;;;;;;;;;;;;;;;27.46;60.68;99923.97;4485332;32;20007;-83
2022/05/27 09:38:06;;;;;;;;;;;;;;;27.32;60.67;99944.03;4485351;32;20007;-82
2022/05/27 09:40:33;;;;;;;;;;;;;;;27.36;60.67;99933.88;4485319;32;19976;-83
2022/05/27 09:43:09;;;;;;;;;;;;;;;27.48;60.67;99928.16;4485334;32;19964;-82
2022/05/27 09:45:35;;;;;;;;;;;;;;;27.92;60.70;99916.66;4485228;32;20007;-83
2022/05/27 09:48:01;;;;;;;;;;;;;;;27.82;60.70;99920.28;4472215;32;19997;-83
2022/05/27 09:50:46;;;;;;;;;;;;;;;27.82;60.70;99912.25;4485270;32;20013;-83
2022/05/27 09:53:12;;;;;;;;;;;;;;;28.19;60.71;99903.16;4486466;31;20008;-83
2022/05/27 09:55:46;;;;;;;;;;;;;;;27.97;60.71;99901.00;4485054;32;19992;-83
2022/05/27 09:58:11;;;;;;;;;;;;;;;28.14;60.72;99897.41;4486250;31;20073;-83
2022/05/27 10:00:38;;;;;;;;;;;;;;;28.41;60.73;99899.12;4485916;32;19984;-83
2022/05/27 10:03:20;;;;;;;;;;;;;;;28.66;60.73;99892.88;4485121;32;19980;-82
2022/05/27 10:05:52;;;;;;;;;;;;;;;28.78;60.74;99889.88;4485066;32;19984;-83
2022/05/27 10:08:31;;;;;;;;;;;;;;;28.60;60.73;99900.69;4484991;32;20048;-83
2022/05/27 10:11:10;;;;;;;;;;;;;;;28.40;60.73;99898.28;4486305;31;20308;-83
2022/05/27 10:13:35;;;;;;;;;;;;;;;28.71;60.74;99885.19;4486210;31;20275;-83
2022/05/27 10:16:04;;;;;;;;;;;;;;;28.42;60.72;99890.09;4484804;32;19977;-83
2022/05/27 10:18:29;;;;;;;;;;;;;;;28.37;60.73;99884.34;4484822;32;20266;-83
2022/05/27 10:20:58;;;;;;;;;;;;;;;28.02;60.70;99871.94;4485802;32;19991;-83
2022/05/27 10:23:27;;;;;;;;;;;;;;;28.10;60.71;99870.13;4486067;32;19994;-82
2022/05/27 10:25:52;;;;;;;;;;;;;;;28.32;60.72;99850.03;4485672;32;19991;-82
2022/05/27 10:28:43;;;;;;;;;;;;;;;28.59;60.73;99865.03;4487859;32;20291;-83
2022/05/27 10:31:15;;;;;;;;;;;;;;;28.41;60.72;99851.75;4484746;31;20432;-83
2022/05/27 10:33:44;;;;;;;;;;;;;;;28.53;60.74;99849.63;4487861;31;19980;-83
2022/05/27 10:36:28;;;;;;;;;;;;;;;28.61;60.74;99844.28;4488022;31;20441;-82
2022/05/27 10:38:56;;;;;;;;;;;;;;;28.90;60.74;99835.03;4487815;31;20088;-83
2022/05/27 10:41:21;;;;;;;;;;;;;;;29.09;60.76;99834.72;4486673;32;20288;-82
2022/05/27 10:44:02;;;;;;;;;;;;;;;29.16;60.77;99825.03;4487825;32;19969;-82
2022/05/27 10:46:30;;;;;;;;;;;;;;;29.14;60.76;99828.88;4487484;31;20011;-83
2022/05/27 10:49:04;;;;;;;;;;;;;;;28.98;60.75;99832.38;4486545;32;20010;-83
2022/05/27 10:51:44;;;;;;;;;;;;;;;29.08;60.75;99822.31;4486677;32;20004;-83
2022/05/27 10:54:28;;;;;;;;;;;;;;;28.91;60.74;99821.47;4487602;32;19972;-83
2022/05/27 11:02:40;;;;;;;;;;;;;;;29.72;60.80;99798.34;4487661;32;20427;-82
2022/05/27 11:05:10;;;;;;;;;;;;;;;29.76;60.80;99795.16;4487755;32;19969;-82
2022/05/27 11:07:38;;;;;;;;;;;;;;;29.81;60.80;99789.25;4486398;32;20331;-82
2022/05/27 11:10:09;;;;;;;;;;;;;;;29.76;60.79;99778.22;4487608;32;20004;-82
2022/05/27 11:15:44;;;;;;;;;;;;;;;29.81;60.80;99768.66;4486428;32;19995;-82
2022/05/27 11:18:21;;;;;;;;;;;;;;;30.05;60.81;99777.66;4487528;32;20030;-83
2022/05/27 11:21:05;;;;;;;;;;;;;;;30.35;60.82;99759.91;4486315;32;20056;-82
2022/05/27 11:23:33;;;;;;;;;;;;;;;30.47;60.83;99756.63;4487841;31;19977;-82
2022/05/27 11:26:07;;;;;;;;;;;;;;;30.82;60.84;99749.91;4487591;32;20313;-82
2022/05/27 11:28:54;;;;;;;;;;;;;;;30.83;60.85;99751.56;4487452;32;19999;-82
2022/05/27 11:31:25;;;;;;;;;;;;;;;30.72;60.84;99741.22;4486226;32;20281;-82
2022/05/27 11:33:53;;;;;;;;;;;;;;;30.57;60.83;99747.53;4486206;32;19977;-82
2022/05/27 11:36:20;;;;;;;;;;;;;;;30.45;60.83;99736.34;4487429;32;20280;-82
2022/05/27 11:38:45;;;;;;;;;;;;;;;30.74;60.84;99731.12;4486018;32;20028;-82
2022/05/27 11:41:14;;;;;;;;;;;;;;;30.79;60.85;99731.44;4487379;32;19990;-82
2022/05/27 11:43:46;;;;;;;;;;;;;;;31.06;60.87;99724.69;4486107;32;20344;-83
2022/05/27 11:46:31;;;;;;;;;;;;;;;31.07;60.86;99707.53;4486017;32;19993;-82
2022/05/27 11:48:56;;;;;;;;;;;;;;;31.16;60.86;99713.66;4487630;31;19980;-82
2022/05/27 11:51:28;;;;;;;;;;;;;;;30.64;60.83;99706.38;4487285;32;19973;-82
2022/05/27 11:54:02;;;;;;;;;;;;;;;30.48;60.83;99698.38;4487287;32;19968;-82
2022/05/27 11:56:52;;;;;;;;;;;;;;;30.35;60.82;99708.88;4487333;31;20543;-83
2022/05/27 11:59:24;;;;;;;;;;;;;;;30.28;60.83;99707.91;4479383;32;19976;-82
2022/05/27 12:02:01;;;;;;;;;;;;;;;29.94;60.80;99698.31;4472905;32;20012;-83
2022/05/27 12:04:35;;;;;;;;;;;;;;;29.89;60.80;99700.69;4487198;32;20329;-82
2022/05/27 12:07:12;;;;;;;;;;;;;;;30.10;60.81;99698.28;4486121;32;20017;-83
2022/05/27 12:09:41;;;;;;;;;;;;;;;30.36;60.83;99679.16;4485957;32;20382;-82
2022/05/27 12:12:08;;;;;;;;;;;;;;;30.73;60.84;99664.97;4472874;32;20011;-83
2022/05/27 12:14:38;;;;;;;;;;;;;;;30.85;60.85;99660.84;4485913;32;20344;-83
2022/05/27 12:17:03;;;;;;;;;;;;;;;31.06;60.87;99668.22;4485953;32;20318;-82
2022/05/27 12:19:32;;;;;;;;;;;;;;;31.22;60.86;99674.47;4485939;32;20004;-82
2022/05/27 12:22:02;;;;;;;;;;;;;;;31.47;60.89;99662.44;4485892;32;20006;-82
2022/05/27 12:24:41;;;;;;;;;;;;;;;31.44;60.88;99658.25;4485946;32;19990;-83
2022/05/27 12:27:07;;;;;;;;;;;;;;;31.41;60.88;99664.00;4485843;32;19984;-83
2022/05/27 12:29:32;;;;;;;;;;;;;;;31.33;60.87;99647.97;4485652;32;19999;-83
2022/05/27 12:31:57;;;;;;;;;;;;;;;31.01;60.86;99646.44;4485885;32;19992;-83
2022/05/27 12:34:28;;;;;;;;;;;;;;;31.10;60.86;99641.78;4486639;32;19973;-83
2022/05/27 12:37:00;;;;;;;;;;;;;;;31.22;60.88;99629.56;4487093;32;20018;-83
2022/05/27 12:39:29;;;;;;;;;;;;;;;31.13;60.85;99628.81;4485711;32;20000;-82
2022/05/27 12:42:13;;;;;;;;;;;;;;;31.19;60.87;99626.44;4485883;32;20315;-83
2022/05/27 12:44:39;;;;;;;;;;;;;;;31.13;60.86;99623.44;4485564;32;19978;-82
2022/05/27 12:47:04;;;;;;;;;;;;;;;30.99;60.86;99620.72;4472454;32;20013;-83
2022/05/27 12:49:39;;;;;;;;;;;;;;;31.24;60.88;99614.13;4485189;32;20027;-82
2022/05/27 12:52:05;;;;;;;;;;;;;;;31.51;60.89;99611.78;4485705;32;20362;-82
2022/05/27 12:54:42;;;;;;;;;;;;;;;31.69;60.89;99613.03;4486782;31;19964;-83
2022/05/27 13:03:41;;;;;;;;;;;;;;;31.89;60.90;99597.16;4485923;32;19995;-83
2022/05/27 13:06:14;;;;;;;;;;;;;;;31.83;60.90;99591.72;4486930;31;20040;-82
2022/05/27 13:08:43;;;;;;;;;;;;;;;31.23;60.86;99590.06;4486774;31;20101;-82
2022/05/27 13:11:35;;;;;;;;;;;;;;;30.47;60.83;99587.41;4486799;31;19981;-82
2022/05/27 13:14:01;;;;;;;;;;;;;;;30.18;60.81;99590.00;4483471;31;20006;-83
2022/05/27 13:16:40;;;;;;;;;;;;;;;30.29;60.83;99580.72;4486698;31;19973;-83
2022/05/27 13:19:06;;;;;;;;;;;;;;;30.34;60.82;99572.94;4485338;32;19999;-83
2022/05/27 13:21:31;;;;;;;;;;;;;;;30.69;60.84;99558.87;4485439;32;20328;-83
2022/05/27 13:24:00;;;;;;;;;;;;;;;30.76;60.85;99559.84;4486778;32;19996;-83